Time;durP1;ratioP1;P1;durP2;ratioP2;P2;SDS_P1;SDS_P2;PMS_P1;PMS_P2;Temp;Humidity;BMP_temperature;BMP_pressure;BME280_temperature;BME280_humidity;BME280_pressure;Samples;Min_cycle;Max_cycle;Signal;HPM_P1;HPM_P2
2023/05/02 00:02:04;;;;;;;4.83;4.43;;;;;;;12.63;100.00;99238.69;6111416;23;20177;-84
2023/05/02 00:04:31;;;;;;;5.70;4.70;;;;;;;12.60;100.00;99236.47;6135394;23;20237;-85
2023/05/02 00:06:58;;;;;;;5.37;4.90;;;;;;;12.59;100.00;99237.56;6111203;23;20161;-85
2023/05/02 00:09:25;;;;;;;5.10;4.67;;;;;;;12.58;100.00;99239.41;6110555;23;20177;-84
2023/05/02 00:11:51;;;;;;;5.83;5.13;;;;;;;12.63;100.00;99236.00;6135139;23;20278;-84
2023/05/02 00:14:18;;;;;;;4.70;4.40;;;;;;;12.57;100.00;99239.66;6135004;23;20252;-84
2023/05/02 00:16:45;;;;;;;5.03;4.40;;;;;;;12.44;100.00;99239.97;6159524;23;20324;-85
2023/05/02 00:19:12;;;;;;;5.47;4.97;;;;;;;12.41;100.00;99251.97;6110792;23;20187;-84
2023/05/02 00:21:39;;;;;;;5.43;4.70;;;;;;;12.42;100.00;99244.75;6134985;23;20184;-84
2023/05/02 00:24:05;;;;;;;5.47;5.00;;;;;;;12.36;100.00;99244.66;6116399;23;20537;-84
2023/05/02 00:26:32;;;;;;;5.33;4.70;;;;;;;12.27;100.00;99243.41;6159792;23;20271;-84
2023/05/02 00:29:00;;;;;;;5.13;4.73;;;;;;;12.25;100.00;99247.41;6159358;23;20220;-84
2023/05/02 00:31:26;;;;;;;4.77;4.30;;;;;;;12.25;100.00;99247.41;6159723;23;20485;-84
2023/05/02 00:33:53;;;;;;;5.20;4.80;;;;;;;12.24;100.00;99243.88;6159738;23;20173;-84
2023/05/02 00:36:20;;;;;;;5.30;4.90;;;;;;;12.24;100.00;99246.56;6134792;23;20177;-84
2023/05/02 00:38:47;;;;;;;6.03;5.07;;;;;;;12.23;100.00;99241.44;6135325;23;20674;-84
2023/05/02 00:41:15;;;;;;;5.53;5.03;;;;;;;12.19;100.00;99246.47;6134991;23;20268;-84
2023/05/02 00:43:42;;;;;;;5.23;4.80;;;;;;;12.22;100.00;99245.19;6159422;23;20221;-84
2023/05/02 00:46:11;;;;;;;5.70;4.83;;;;;;;12.18;100.00;99255.56;6159193;23;20164;-85
2023/05/02 00:48:38;;;;;;;5.30;4.80;;;;;;;12.13;100.00;99255.47;6184126;23;20168;-85
2023/05/02 00:51:07;;;;;;;5.33;4.83;;;;;;;12.14;100.00;99253.63;6159378;23;20407;-84
2023/05/02 00:53:34;;;;;;;4.70;4.30;;;;;;;12.02;100.00;99253.66;6159209;23;20230;-84
2023/05/02 00:56:01;;;;;;;5.30;4.80;;;;;;;12.06;100.00;99254.81;6134517;23;20226;-84
2023/05/02 00:58:29;;;;;;;5.80;5.30;;;;;;;12.04;100.00;99251.53;6159523;23;20192;-85
2023/05/02 01:00:59;;;;;;;6.10;5.10;;;;;;;12.08;100.00;99260.78;6159583;23;20191;-85
2023/05/02 01:03:44;;;;;;;5.33;4.93;;;;;;;12.13;100.00;99263.53;6183983;23;20233;-85
2023/05/02 01:06:18;;;;;;;5.83;5.23;;;;;;;12.13;100.00;99262.75;6159120;23;20172;-84
2023/05/02 01:08:53;;;;;;;6.00;5.50;;;;;;;12.26;100.00;99270.53;6159681;23;20197;-85
2023/05/02 01:11:29;;;;;;;5.70;5.20;;;;;;;12.12;100.00;99267.28;6135049;23;20620;-85
2023/05/02 01:13:57;;;;;;;5.60;5.10;;;;;;;12.07;100.00;99271.75;6159702;23;20172;-84
2023/05/02 01:16:24;;;;;;;5.50;5.10;;;;;;;12.03;100.00;99270.59;6159180;23;20167;-85
2023/05/02 01:18:51;;;;;;;6.07;5.57;;;;;;;12.00;100.00;99273.72;6159506;23;20193;-84
2023/05/02 01:21:18;;;;;;;5.90;5.30;;;;;;;11.94;100.00;99270.16;6159184;23;20218;-85
2023/05/02 01:24:15;;;;;;;5.50;5.10;;;;;;;11.99;100.00;99264.84;6159006;23;20207;-84
2023/05/02 01:26:54;;;;;;;5.90;5.30;;;;;;;11.98;100.00;99260.56;6159042;23;20172;-84
2023/05/02 01:29:22;;;;;;;5.63;5.10;;;;;;;11.96;100.00;99259.16;6159326;23;20195;-84
2023/05/02 01:31:50;;;;;;;5.80;5.30;;;;;;;11.99;100.00;99262.16;6159166;23;20603;-84
2023/05/02 01:34:19;;;;;;;5.77;5.37;;;;;;;11.96;100.00;99259.97;6208651;23;20197;-84
2023/05/02 01:36:47;;;;;;;5.40;5.00;;;;;;;11.97;100.00;99266.16;6158925;23;20203;-85
2023/05/02 01:39:23;;;;;;;5.60;5.20;;;;;;;12.06;100.00;99270.09;6183710;23;20194;-84
2023/05/02 01:41:51;;;;;;;6.00;5.50;;;;;;;12.02;100.00;99266.25;6158789;23;20174;-84
2023/05/02 01:44:19;;;;;;;6.37;5.77;;;;;;;12.17;100.00;99275.47;6134635;23;20168;-84
2023/05/02 01:46:47;;;;;;;5.77;5.27;;;;;;;12.04;100.00;99277.59;6159152;23;20176;-86
2023/05/02 01:49:14;;;;;;;5.83;5.33;;;;;;;12.00;100.00;99284.47;6159083;23;20283;-84
2023/05/02 01:51:47;;;;;;;6.47;5.50;;;;;;;11.94;100.00;99277.38;6159022;23;20174;-84
2023/05/02 01:54:15;;;;;;;6.03;5.50;;;;;;;11.98;100.00;99281.22;6159070;23;20241;-84
2023/05/02 01:56:45;;;;;;;6.20;5.60;;;;;;;11.96;100.00;99281.44;6158901;23;20172;-84
2023/05/02 01:59:14;;;;;;;5.83;5.33;;;;;;;11.85;100.00;99283.09;6159037;23;20215;-85
2023/05/02 02:01:42;;;;;;;6.00;5.50;;;;;;;11.80;100.00;99282.19;6158646;23;20203;-84
2023/05/02 02:04:11;;;;;;;5.80;5.40;;;;;;;11.82;100.00;99280.06;6159517;23;20182;-85
2023/05/02 02:06:41;;;;;;;6.30;5.80;;;;;;;11.84;100.00;99281.47;6158630;23;20168;-85
2023/05/02 02:09:08;;;;;;;5.80;5.40;;;;;;;11.87;100.00;99283.69;6159248;23;20525;-85
2023/05/02 02:11:38;;;;;;;5.77;5.37;;;;;;;11.88;100.00;99284.50;6158609;23;20261;-84
2023/05/02 02:14:06;;;;;;;5.43;5.03;;;;;;;11.89;100.00;99286.97;6134084;23;20185;-84
2023/05/02 02:16:36;;;;;;;5.63;5.13;;;;;;;11.88;100.00;99279.13;6158962;23;20179;-84
2023/05/02 02:19:06;;;;;;;6.00;5.50;;;;;;;11.87;100.00;99283.69;6134596;23;20219;-85
2023/05/02 02:21:35;;;;;;;5.90;5.40;;;;;;;11.87;100.00;99291.75;6158542;23;20346;-86
2023/05/02 02:24:03;;;;;;;5.83;4.97;;;;;;;11.89;100.00;99281.59;6154142;23;20668;-84
2023/05/02 02:26:29;;;;;;;5.30;4.90;;;;;;;11.89;100.00;99286.97;6109969;23;20241;-84
2023/05/02 02:28:56;;;;;;;5.80;5.20;;;;;;;11.86;100.00;99279.38;6134510;23;20167;-84
2023/05/02 02:31:24;;;;;;;5.70;5.20;;;;;;;11.81;100.00;99278.44;6110300;23;20170;-85
2023/05/02 02:33:51;;;;;;;5.67;5.17;;;;;;;11.83;100.00;99287.91;6134021;23;20601;-84
2023/05/02 02:36:24;;;;;;;5.80;5.30;;;;;;;11.78;100.00;99284.28;6134296;23;20246;-85
2023/05/02 02:39:00;;;;;;;5.70;5.20;;;;;;;11.69;100.00;99283.81;6134029;23;20197;-84
2023/05/02 02:41:32;;;;;;;5.60;5.20;;;;;;;11.65;100.00;99285.31;6109584;23;20175;-85
2023/05/02 02:44:24;;;;;;;5.60;5.10;;;;;;;11.59;100.00;99296.16;6184866;23;20221;-84
2023/05/02 02:47:01;;;;;;;5.77;5.37;;;;;;;11.54;100.00;99296.88;6109895;23;20180;-84
2023/05/02 02:49:41;;;;;;;6.37;5.77;;;;;;;11.51;100.00;99289.31;6184890;23;20161;-84
2023/05/02 02:52:27;;;;;;;5.70;5.23;;;;;;;11.42;100.00;99285.34;6109590;23;20168;-85
2023/05/02 02:54:59;;;;;;;5.53;5.10;;;;;;;11.41;100.00;99291.75;6134015;23;20378;-85
2023/05/02 02:57:38;;;;;;;5.80;5.30;;;;;;;11.36;100.00;99297.81;6134247;23;20614;-85
2023/05/02 03:00:15;;;;;;;5.90;5.50;;;;;;;11.37;100.00;99291.41;6133823;23;20197;-85
2023/05/02 03:02:42;;;;;;;6.50;5.90;;;;;;;11.31;100.00;99296.88;6134300;23;20170;-85
2023/05/02 03:05:10;;;;;;;6.10;5.50;;;;;;;11.31;100.00;99294.19;6133856;23;20194;-84
2023/05/02 03:07:36;;;;;;;5.43;5.03;;;;;;;11.28;100.00;99300.84;6134296;23;20167;-85
2023/05/02 03:10:04;;;;;;;5.50;5.10;;;;;;;11.24;100.00;99305.03;6109510;23;20178;-85
2023/05/02 03:12:33;;;;;;;5.73;5.23;;;;;;;11.23;100.00;99305.25;6134835;23;20166;-84
2023/05/02 03:15:27;;;;;;;5.87;5.33;;;;;;;11.18;100.00;99314.00;6110401;23;20198;-85
2023/05/02 03:17:54;;;;;;;6.67;6.07;;;;;;;11.14;100.00;99312.81;6109813;23;20174;-84
2023/05/02 03:20:21;;;;;;;6.10;5.60;;;;;;;11.08;100.00;99308.38;6109409;23;20195;-85
2023/05/02 03:22:48;;;;;;;6.57;5.97;;;;;;;11.09;100.00;99323.41;6109628;23;20170;-85
2023/05/02 03:25:15;;;;;;;7.17;6.47;;;;;;;11.12;100.00;99322.13;6129386;23;20712;-85
2023/05/02 03:27:45;;;;;;;6.47;5.87;;;;;;;11.06;100.00;99318.50;6135426;23;20170;-84
2023/05/02 03:30:12;;;;;;;6.23;5.67;;;;;;;11.08;100.00;99320.97;6134005;23;20625;-85
2023/05/02 03:32:39;;;;;;;7.23;6.60;;;;;;;11.15;100.00;99324.38;6134022;23;20170;-84
2023/05/02 03:35:07;;;;;;;6.90;6.17;;;;;;;11.14;100.00;99318.19;6182588;23;20274;-85
2023/05/02 03:37:38;;;;;;;6.47;5.87;;;;;;;11.14;100.00;99314.69;6159228;23;20229;-84
2023/05/02 03:40:06;;;;;;;7.00;6.40;;;;;;;11.11;100.00;99321.31;6183666;23;20186;-85
2023/05/02 03:42:38;;;;;;;7.63;6.67;;;;;;;11.18;100.00;99324.72;6183275;23;20640;-86
2023/05/02 03:45:15;;;;;;;6.10;5.60;;;;;;;11.15;100.00;99329.72;6138306;23;20178;-85
2023/05/02 03:47:42;;;;;;;6.43;5.83;;;;;;;11.18;100.00;99331.94;6134354;23;20177;-85
2023/05/02 03:50:10;;;;;;;6.50;6.00;;;;;;;11.22;100.00;99338.47;6158141;23;20180;-84
2023/05/02 03:52:37;;;;;;;6.27;5.77;;;;;;;11.23;100.00;99338.25;6158262;23;20730;-85
2023/05/02 03:55:06;;;;;;;6.43;5.83;;;;;;;11.27;100.00;99343.97;6157680;23;20190;-85
2023/05/02 03:57:33;;;;;;;7.50;6.80;;;;;;;11.34;100.00;99350.03;6184063;23;20167;-85
2023/05/02 04:00:00;;;;;;;6.50;5.90;;;;;;;11.41;100.00;99350.75;6133811;23;20200;-84
2023/05/02 04:02:37;;;;;;;6.50;6.00;;;;;;;11.43;100.00;99354.81;6182993;23;20158;-85
2023/05/02 04:05:07;;;;;;;6.77;6.07;;;;;;;11.46;100.00;99365.13;6135286;23;20172;-85
2023/05/02 04:07:35;;;;;;;6.90;6.20;;;;;;;11.55;100.00;99364.75;6158416;23;20170;-84
2023/05/02 04:10:05;;;;;;;6.70;6.20;;;;;;;11.59;100.00;99371.28;6158508;23;20174;-84
2023/05/02 04:12:37;;;;;;;6.90;6.30;;;;;;;11.64;100.00;99366.06;6159415;23;20250;-85
2023/05/02 04:15:05;;;;;;;6.93;6.33;;;;;;;11.66;100.00;99364.78;6133708;23;20229;-85
2023/05/02 04:17:32;;;;;;;6.87;6.27;;;;;;;11.75;100.00;99370.66;6157577;23;20182;-84
2023/05/02 04:19:59;;;;;;;7.63;6.93;;;;;;;11.83;100.00;99373.78;6157767;23;20194;-84
2023/05/02 04:22:32;;;;;;;7.27;6.67;;;;;;;11.95;100.00;99379.16;6135939;23;20174;-84
2023/05/02 04:25:02;;;;;;;7.40;6.70;;;;;;;12.02;100.00;99382.53;6158779;23;20194;-85
2023/05/02 04:27:31;;;;;;;6.80;6.10;;;;;;;12.12;100.00;99395.38;6157268;23;20175;-84
2023/05/02 04:29:58;;;;;;;7.07;6.47;;;;;;;12.14;100.00;99388.72;6133374;23;20197;-85
2023/05/02 04:32:25;;;;;;;6.57;6.07;;;;;;;12.16;100.00;99393.84;6133188;23;20179;-85
2023/05/02 04:34:54;;;;;;;7.27;6.73;;;;;;;12.26;100.00;99394.06;6109513;23;20178;-83
2023/05/02 04:37:22;;;;;;;7.10;6.50;;;;;;;12.34;100.00;99399.91;6133618;23;20517;-84
2023/05/02 04:39:49;;;;;;;7.43;6.73;;;;;;;12.44;100.00;99403.84;6110952;23;20191;-85
2023/05/02 04:42:20;;;;;;;6.93;6.43;;;;;;;12.56;100.00;99399.25;6135826;23;20174;-85
2023/05/02 04:44:55;;;;;;;7.00;6.47;;;;;;;12.62;100.00;99401.81;6114484;23;20159;-85
2023/05/02 04:47:21;;;;;;;7.87;6.77;;;;;;;12.69;100.00;99404.38;6110878;23;20184;-85
2023/05/02 04:49:48;;;;;;;8.23;7.43;;;;;;;12.80;100.00;99407.00;6110987;23;20645;-85
2023/05/02 04:52:15;;;;;;;7.93;7.13;;;;;;;12.88;100.00;99410.41;6135319;23;20284;-84
2023/05/02 04:54:42;;;;;;;8.07;7.27;;;;;;;13.01;100.00;99407.41;6135029;23;20196;-84
2023/05/02 04:57:11;;;;;;;7.03;6.40;;;;;;;13.17;100.00;99410.16;6136208;23;20183;-84
2023/05/02 04:59:42;;;;;;;8.17;7.47;;;;;;;13.35;100.00;99411.00;6135774;23;20680;-84
2023/05/02 05:02:11;;;;;;;7.83;7.13;;;;;;;13.55;100.00;99414.03;6134894;23;20197;-84
2023/05/02 05:04:38;;;;;;;8.10;7.40;;;;;;;13.73;100.00;99415.66;6111231;23;20211;-83
2023/05/02 05:07:06;;;;;;;7.37;6.77;;;;;;;13.98;100.00;99421.47;6109944;23;20218;-84
2023/05/02 05:09:32;;;;;;;7.00;6.40;;;;;;;14.21;100.00;99409.66;6158896;23;20215;-84
2023/05/02 05:12:00;;;;;;;7.80;6.77;;;;;;;14.47;100.00;99417.06;6135015;23;20219;-84
2023/05/02 05:14:30;;;;;;;6.73;6.23;;;;;;;14.82;100.00;99425.59;6134736;23;20177;-84
2023/05/02 05:16:57;;;;;;;7.20;6.50;;;;;;;15.15;100.00;99415.72;6133552;23;20173;-84
2023/05/02 05:19:25;;;;;;;7.23;6.63;;;;;;;15.31;100.00;99421.00;6134242;23;20265;-83
2023/05/02 05:21:52;;;;;;;7.03;6.40;;;;;;;15.73;100.00;99418.41;6134527;23;20189;-83
2023/05/02 05:24:20;;;;;;;7.00;6.40;;;;;;;16.03;100.00;99422.44;6123879;23;20208;-83
2023/05/02 05:26:48;;;;;;;7.23;6.63;;;;;;;16.27;100.00;99427.19;6164256;23;20212;-83
2023/05/02 05:29:15;;;;;;;8.30;6.53;;;;;;;16.51;100.00;99433.00;6163499;23;20184;-84
2023/05/02 05:31:42;;;;;;;6.20;5.70;;;;;;;16.75;100.00;99419.88;6163770;23;20173;-84
2023/05/02 05:34:13;;;;;;;6.60;6.10;;;;;;;17.01;100.00;99429.72;6164342;23;20186;-83
2023/05/02 05:36:41;;;;;;;7.40;6.07;;;;;;;17.23;100.00;99436.78;6164038;23;20174;-83
2023/05/02 05:39:07;;;;;;;6.80;6.10;;;;;;;17.44;100.00;99431.16;6164156;23;20177;-84
2023/05/02 05:41:37;;;;;;;7.47;6.87;;;;;;;17.60;100.00;99432.81;6164107;23;20181;-83
2023/05/02 05:44:06;;;;;;;7.13;6.57;;;;;;;17.63;100.00;99438.78;6165163;23;20173;-84
2023/05/02 05:46:33;;;;;;;7.00;6.30;;;;;;;17.83;100.00;99434.19;6163736;23;20166;-84
2023/05/02 05:49:01;;;;;;;6.57;6.00;;;;;;;17.97;100.00;99432.53;6163939;23;20220;-84
2023/05/02 05:51:29;;;;;;;6.57;6.03;;;;;;;17.96;100.00;99430.13;6139408;23;20173;-83
2023/05/02 05:53:57;;;;;;;7.00;6.30;;;;;;;18.15;100.00;99431.16;6139841;23;20239;-84
2023/05/02 05:56:25;;;;;;;6.47;5.83;;;;;;;18.19;100.00;99424.13;6163866;23;20515;-83
2023/05/02 05:58:58;;;;;;;6.63;6.13;;;;;;;17.80;100.00;99426.59;6165215;23;20613;-84
2023/05/02 06:01:25;;;;;;;6.70;6.20;;;;;;;17.94;100.00;99437.72;6163645;23;20234;-84
2023/05/02 06:03:52;;;;;;;6.60;5.90;;;;;;;18.13;100.00;99443.38;6139706;23;20184;-83
2023/05/02 06:06:19;;;;;;;6.73;6.20;;;;;;;18.22;100.00;99445.25;6139110;23;20170;-83
2023/05/02 06:08:46;;;;;;;6.20;5.70;;;;;;;18.43;100.00;99441.41;6139552;23;20166;-83
2023/05/02 06:11:13;;;;;;;6.47;5.87;;;;;;;18.59;100.00;99436.78;6139265;23;20177;-83
2023/05/02 06:13:40;;;;;;;5.60;5.10;;;;;;;18.66;100.00;99450.09;6139137;23;20166;-83
2023/05/02 06:16:07;;;;;;;6.00;5.50;;;;;;;18.23;100.00;99444.19;6139284;23;20221;-83
2023/05/02 06:18:34;;;;;;;5.63;5.23;;;;;;;18.71;100.00;99450.84;6164003;23;20192;-83
2023/05/02 06:21:04;;;;;;;5.93;5.43;;;;;;;19.26;100.00;99455.22;6163359;23;20269;-84
2023/05/02 06:23:31;;;;;;;5.73;5.27;;;;;;;19.22;98.94;99456.06;6159951;23;20185;-83
2023/05/02 06:26:00;;;;;;;5.50;5.00;;;;;;;19.24;99.51;99456.59;6158611;23;20220;-84
2023/05/02 06:28:27;;;;;;;5.97;5.37;;;;;;;19.39;97.83;99461.13;6133683;23;20170;-83
2023/05/02 06:30:56;;;;;;;4.50;4.20;;;;;;;19.56;96.06;99461.56;6133434;23;20167;-84
2023/05/02 06:33:23;;;;;;;4.93;4.50;;;;;;;19.62;94.16;99458.56;6158690;23;20674;-83
2023/05/02 06:35:52;;;;;;;5.10;4.70;;;;;;;19.84;94.06;99466.25;6132977;23;20170;-84
2023/05/02 06:38:22;;;;;;;4.50;4.07;;;;;;;19.86;90.24;99463.28;6134367;23;20170;-84
2023/05/02 06:40:49;;;;;;;4.53;4.17;;;;;;;20.05;89.85;99467.75;6133973;23;20184;-83
2023/05/02 06:43:16;;;;;;;4.67;4.27;;;;;;;20.01;90.53;99476.75;6108995;23;20765;-83
2023/05/02 06:45:43;;;;;;;4.70;4.40;;;;;;;20.14;90.12;99468.75;6133312;23;20170;-83
2023/05/02 06:48:10;;;;;;;4.00;3.60;;;;;;;20.11;88.73;99469.28;6133392;23;20248;-83
2023/05/02 06:50:36;;;;;;;4.50;4.10;;;;;;;20.29;90.40;99469.69;6158088;23;20271;-83
2023/05/02 06:53:04;;;;;;;4.13;3.83;;;;;;;20.16;90.43;99477.41;6109145;23;20172;-84
2023/05/02 06:55:31;;;;;;;3.70;3.50;;;;;;;20.29;89.19;99475.94;6158375;23;20190;-83
2023/05/02 06:57:58;;;;;;;4.50;4.20;;;;;;;20.02;89.11;99465.56;6158331;23;20163;-84
2023/05/02 07:00:25;;;;;;;4.20;3.90;;;;;;;19.99;90.08;99474.31;6133111;23;20221;-83
2023/05/02 07:02:52;;;;;;;5.00;4.50;;;;;;;20.06;88.59;99479.44;6133210;23;20253;-83
2023/05/02 07:05:18;;;;;;;5.40;4.93;;;;;;;19.57;89.53;99468.66;6133503;23;20167;-84
2023/05/02 07:07:45;;;;;;;5.33;4.83;;;;;;;19.99;88.52;99479.75;6109018;23;20171;-83
2023/05/02 07:10:12;;;;;;;4.60;4.30;;;;;;;19.94;88.34;99485.22;6133048;23;20174;-84
2023/05/02 07:12:38;;;;;;;5.03;4.70;;;;;;;19.80;88.23;99489.69;6108989;23;20610;-84
2023/05/02 07:15:05;;;;;;;5.77;5.00;;;;;;;19.64;89.07;99486.25;6157880;23;20212;-84
2023/05/02 07:17:32;;;;;;;5.87;5.43;;;;;;;19.92;87.93;99492.88;6133142;23;20166;-84
2023/05/02 07:19:59;;;;;;;6.07;5.57;;;;;;;20.12;88.34;99500.84;6133154;23;20517;-84
2023/05/02 07:22:26;;;;;;;6.00;5.50;;;;;;;20.17;87.23;99492.63;6133940;23;20163;-83
2023/05/02 07:24:57;;;;;;;5.73;5.33;;;;;;;20.21;87.05;99496.41;6133060;23;20212;-84
2023/05/02 07:27:24;;;;;;;5.90;5.40;;;;;;;20.47;85.74;99502.47;6109230;23;20170;-83
2023/05/02 07:29:51;;;;;;;5.93;5.50;;;;;;;20.24;85.13;99505.91;6133395;23;20215;-84
2023/05/02 07:32:20;;;;;;;6.00;5.50;;;;;;;20.31;85.65;99516.47;6133092;23;20180;-83
2023/05/02 07:34:47;;;;;;;6.43;5.90;;;;;;;20.13;84.03;99515.25;6109722;23;20174;-83
2023/05/02 07:37:14;;;;;;;6.03;5.53;;;;;;;19.93;85.47;99507.25;6133336;23;20176;-84
2023/05/02 07:39:40;;;;;;;6.73;6.23;;;;;;;19.75;85.81;99509.56;6157996;23;20251;-84
2023/05/02 07:42:07;;;;;;;6.20;5.70;;;;;;;20.06;85.51;99510.13;6133023;23;20226;-84
2023/05/02 07:44:34;;;;;;;6.43;5.93;;;;;;;20.25;84.64;99520.34;6133638;23;20167;-83
2023/05/02 07:47:02;;;;;;;5.87;5.47;;;;;;;20.46;83.93;99517.16;6108950;23;20171;-84
2023/05/02 07:49:31;;;;;;;5.80;5.30;;;;;;;20.18;82.15;99520.66;6157459;23;20162;-83
2023/05/02 07:51:57;;;;;;;5.90;5.40;;;;;;;19.93;81.90;99505.34;6109149;23;20209;-84
2023/05/02 07:54:27;;;;;;;6.13;5.67;;;;;;;19.81;82.42;99513.06;6108760;23;20220;-84
2023/05/02 07:56:56;;;;;;;5.87;5.47;;;;;;;19.57;82.45;99520.28;6109228;23;20168;-84
2023/05/02 07:59:23;;;;;;;5.50;5.10;;;;;;;19.52;82.10;99523.84;6133768;23;20170;-84
2023/05/02 08:01:49;;;;;;;5.90;5.40;;;;;;;19.55;83.02;99525.19;6108936;23;20273;-83
2023/05/02 08:04:16;;;;;;;5.90;5.40;;;;;;;19.48;82.66;99521.97;6132710;23;20182;-84
2023/05/02 08:06:45;;;;;;;5.73;5.30;;;;;;;19.54;82.71;99518.94;6133766;23;20200;-84
2023/05/02 08:09:12;;;;;;;5.70;5.20;;;;;;;19.17;83.43;99524.81;6108593;23;20732;-83
2023/05/02 08:11:39;;;;;;;5.30;4.80;;;;;;;19.26;83.61;99525.84;6133001;23;20166;-84
2023/05/02 08:14:05;;;;;;;5.43;5.03;;;;;;;19.25;83.32;99537.81;6134650;23;20234;-84
2023/05/02 08:16:32;;;;;;;6.03;5.60;;;;;;;19.45;83.33;99530.69;6111027;23;20178;-84
2023/05/02 08:18:59;;;;;;;5.93;5.43;;;;;;;19.26;84.06;99530.47;6110956;23;20180;-84
2023/05/02 08:21:26;;;;;;;5.63;5.20;;;;;;;18.90;85.58;99532.47;6185638;23;20175;-84
2023/05/02 08:23:57;;;;;;;4.90;4.50;;;;;;;18.77;85.37;99533.06;6135342;23;20218;-83
2023/05/02 08:26:23;;;;;;;4.70;4.40;;;;;;;18.45;87.49;99531.47;6135326;23;20167;-85
2023/05/02 08:28:50;;;;;;;4.83;4.43;;;;;;;18.76;87.76;99531.44;6110854;23;20260;-84
2023/05/02 08:31:18;;;;;;;4.60;4.30;;;;;;;18.69;88.02;99536.34;6134859;23;20202;-84
2023/05/02 08:33:44;;;;;;;4.50;4.10;;;;;;;19.05;87.23;99527.00;6134928;23;20170;-84
2023/05/02 08:36:16;;;;;;;4.57;4.17;;;;;;;19.58;86.13;99528.16;6110522;23;20171;-84
2023/05/02 08:38:43;;;;;;;4.37;4.07;;;;;;;19.36;86.05;99523.06;6110956;23;20171;-84
2023/05/02 08:41:12;;;;;;;4.47;4.07;;;;;;;19.79;85.12;99531.53;6110541;23;20190;-83
2023/05/02 08:43:39;;;;;;;3.90;3.60;;;;;;;20.01;84.74;99531.13;6111081;23;20170;-84
2023/05/02 08:46:07;;;;;;;3.53;3.27;;;;;;;20.06;84.06;99531.09;6134527;23;20174;-84
2023/05/02 08:48:39;;;;;;;3.60;3.30;;;;;;;20.48;84.07;99535.94;6135211;23;20227;-84
2023/05/02 08:51:11;;;;;;;3.30;3.10;;;;;;;20.61;83.55;99535.25;6159238;23;20169;-84
2023/05/02 08:53:38;;;;;;;3.20;2.90;;;;;;;20.55;81.51;99541.84;6134675;23;20683;-83
2023/05/02 08:56:09;;;;;;;2.97;2.77;;;;;;;20.65;81.58;99534.41;6159125;23;20181;-84
2023/05/02 08:58:37;;;;;;;2.93;2.73;;;;;;;20.37;81.21;99539.84;6159375;23;20152;-83
2023/05/02 09:01:18;;;;;;;2.40;2.30;;;;;;;20.34;80.92;99546.69;6110247;23;20191;-84
2023/05/02 09:03:46;;;;;;;2.83;2.63;;;;;;;20.52;80.94;99531.53;6110502;23;20237;-83
2023/05/02 09:06:18;;;;;;;3.00;2.70;;;;;;;20.68;81.28;99535.72;6134523;23;20171;-83
2023/05/02 09:08:51;;;;;;;2.63;2.43;;;;;;;20.93;79.91;99543.63;6110792;23;20639;-83
2023/05/02 09:11:18;;;;;;;2.40;2.30;;;;;;;20.73;80.47;99543.84;6134833;23;20167;-84
2023/05/02 09:13:46;;;;;;;2.37;2.20;;;;;;;20.76;78.77;99546.00;6135070;23;20204;-84
2023/05/02 09:16:16;;;;;;;2.23;2.13;;;;;;;20.59;78.98;99543.69;6134549;23;20225;-83
2023/05/02 09:18:45;;;;;;;2.30;2.20;;;;;;;20.83;78.71;99553.81;6110503;23;20182;-83
2023/05/02 09:21:15;;;;;;;2.27;2.07;;;;;;;20.76;78.64;99550.63;6110148;23;20192;-83
2023/05/02 09:23:48;;;;;;;2.60;2.40;;;;;;;20.85;77.85;99557.06;6136661;23;20610;-83
2023/05/02 09:26:17;;;;;;;2.27;2.17;;;;;;;20.37;78.27;99546.09;6134633;23;20168;-84
2023/05/02 09:28:44;;;;;;;2.47;2.10;;;;;;;20.72;77.43;99558.53;6159281;23;20198;-84
2023/05/02 09:31:13;;;;;;;2.60;2.40;;;;;;;20.27;78.45;99565.19;6183500;23;20834;-84
2023/05/02 09:33:45;;;;;;;2.87;2.60;;;;;;;19.76;78.82;99564.72;6183971;23;20162;-84
2023/05/02 09:36:14;;;;;;;2.57;2.43;;;;;;;20.25;79.64;99572.81;6158924;23;20696;-83
2023/05/02 09:38:45;;;;;;;2.70;2.50;;;;;;;20.05;78.85;99565.63;6134754;23;20174;-84
2023/05/02 09:41:12;;;;;;;2.70;2.50;;;;;;;19.76;78.37;99560.13;6134555;23;20195;-83
2023/05/02 09:43:40;;;;;;;2.97;2.73;;;;;;;19.60;80.16;99565.91;6157758;23;20167;-84
2023/05/02 09:46:08;;;;;;;2.87;2.67;;;;;;;19.82;80.85;99569.06;6158605;23;20199;-83
2023/05/02 09:48:51;;;;;;;2.80;2.60;;;;;;;19.64;80.33;99570.50;6134116;23;20195;-84
2023/05/02 09:51:19;;;;;;;2.40;2.20;;;;;;;19.54;80.94;99572.47;6158371;23;20183;-84
2023/05/02 09:53:46;;;;;;;3.30;2.63;;;;;;;19.61;81.81;99575.69;6134321;23;20194;-84
2023/05/02 09:56:13;;;;;;;2.50;2.30;;;;;;;19.81;80.47;99578.28;6158619;23;20255;-84
2023/05/02 09:58:40;;;;;;;2.40;2.30;;;;;;;19.87;81.16;99574.47;6134099;23;20270;-84
2023/05/02 10:01:07;;;;;;;2.60;2.40;;;;;;;19.50;79.74;99577.66;6158439;23;20194;-84
2023/05/02 10:03:36;;;;;;;2.40;2.30;;;;;;;19.58;80.61;99587.13;6133980;23;20222;-84
2023/05/02 10:06:04;;;;;;;2.43;2.13;;;;;;;19.26;80.41;99587.50;6158522;23;20222;-84
2023/05/02 10:08:32;;;;;;;2.50;2.30;;;;;;;19.17;81.05;99587.28;6157846;23;20171;-84
2023/05/02 10:10:59;;;;;;;3.03;2.30;;;;;;;19.18;82.16;99582.63;6158225;23;20206;-84
2023/05/02 10:13:31;;;;;;;2.60;2.40;;;;;;;18.58;82.42;99584.38;6133541;23;20259;-84
2023/05/02 10:16:03;;;;;;;2.63;2.40;;;;;;;18.63;83.91;99597.94;6135103;23;20233;-84
2023/05/02 10:18:56;;;;;;;2.60;2.40;;;;;;;18.76;84.52;99591.16;6133698;23;20175;-84
2023/05/02 10:21:26;;;;;;;3.50;2.80;;;;;;;18.14;87.61;99599.56;6114523;23;20199;-85
2023/05/02 10:23:53;;;;;;;3.23;3.03;;;;;;;18.24;91.92;99603.09;6134338;23;20735;-84
2023/05/02 10:26:22;;;;;;;3.23;2.93;;;;;;;17.59;92.94;99584.78;6183592;23;20159;-86
2023/05/02 10:28:50;;;;;;;3.43;3.17;;;;;;;17.89;95.23;99597.59;6158413;23;20758;-84
2023/05/02 10:31:17;;;;;;;3.40;3.10;;;;;;;18.33;93.79;99592.53;6134297;23;20257;-84
2023/05/02 10:33:46;;;;;;;3.00;2.67;;;;;;;18.37;92.42;99582.75;6134245;23;20245;-84
2023/05/02 10:36:13;;;;;;;3.00;2.80;;;;;;;18.48;89.87;99587.06;6158142;23;20178;-84
2023/05/02 10:38:40;;;;;;;2.70;2.50;;;;;;;18.65;89.46;99592.25;6183045;23;20190;-84
2023/05/02 10:41:16;;;;;;;2.90;2.70;;;;;;;18.58;89.37;99600.66;6133947;23;20240;-84
2023/05/02 10:43:48;;;;;;;2.80;2.60;;;;;;;18.62;91.63;99609.06;6158654;23;20173;-84
2023/05/02 10:46:30;;;;;;;3.27;2.90;;;;;;;18.60;93.01;99597.69;6158236;23;20186;-83
2023/05/02 10:49:06;;;;;;;3.20;2.90;;;;;;;18.92;92.58;99598.19;6134201;23;20170;-84
2023/05/02 10:51:34;;;;;;;3.30;3.10;;;;;;;19.28;92.97;99596.19;6133661;23;20166;-84
2023/05/02 10:54:16;;;;;;;3.60;3.40;;;;;;;19.64;88.92;99586.81;6182856;23;20222;-84
2023/05/02 10:57:00;;;;;;;4.13;3.83;;;;;;;19.86;88.38;99600.03;6182780;23;20163;-84
2023/05/02 10:59:38;;;;;;;4.07;3.77;;;;;;;19.91;87.96;99599.19;6184299;23;20171;-84
2023/05/02 11:02:29;;;;;;;4.40;4.00;;;;;;;20.22;88.08;99606.84;6180783;23;20175;-82
2023/05/02 11:05:03;;;;;;;4.67;4.27;;;;;;;20.81;85.29;99594.94;6158116;23;20176;-83
2023/05/02 11:07:32;;;;;;;4.40;4.00;;;;;;;21.22;84.17;99595.34;6157778;23;20175;-84
2023/05/02 11:10:14;;;;;;;4.47;4.17;;;;;;;21.50;84.08;99590.94;6132440;23;20198;-83
2023/05/02 11:12:49;;;;;;;4.37;4.07;;;;;;;21.69;83.54;99593.69;6183488;23;20894;-83
2023/05/02 11:15:25;;;;;;;4.50;4.10;;;;;;;21.98;82.31;99597.09;6132859;23;20205;-83
2023/05/02 11:18:10;;;;;;;4.50;4.20;;;;;;;22.40;80.86;99602.44;6183459;23;20157;-83
2023/05/02 11:20:41;;;;;;;4.27;3.87;;;;;;;23.01;79.08;99606.06;6133873;23;20207;-83
2023/05/02 11:23:14;;;;;;;4.77;4.37;;;;;;;22.79;77.26;99604.00;6157773;23;20178;-83
2023/05/02 11:25:43;;;;;;;4.67;4.20;;;;;;;23.11;76.71;99601.22;6183716;23;20624;-83
2023/05/02 11:28:33;;;;;;;4.70;4.30;;;;;;;22.82;77.22;99604.22;6157458;23;20170;-83
2023/05/02 11:31:00;;;;;;;4.70;4.40;;;;;;;22.05;75.61;99596.75;6168476;23;20196;-83
2023/05/02 11:33:27;;;;;;;4.43;4.13;;;;;;;21.71;76.58;99603.19;6182273;23;20176;-84
2023/05/02 11:35:57;;;;;;;4.87;4.33;;;;;;;21.02;78.36;99588.19;6157866;23;20172;-84
2023/05/02 11:38:26;;;;;;;4.60;4.30;;;;;;;21.50;78.02;99589.03;6182439;23;20195;-84
2023/05/02 11:40:57;;;;;;;4.87;4.40;;;;;;;21.46;79.17;99587.97;6182256;23;20227;-83